createdAt,value
2018-09-28T00:00:52.695Z,56.30
2018-09-28T00:03:21.536Z,55.74
2018-09-28T00:05:50.332Z,56.26
2018-09-28T00:08:19.148Z,56.59
2018-09-28T00:10:48.187Z,55.35
2018-09-28T00:13:17.146Z,55.13
2018-09-28T00:15:45.974Z,54.83
2018-09-28T00:18:14.989Z,54.94
2018-09-28T00:20:43.924Z,53.99
2018-09-28T00:23:12.916Z,54.78
2018-09-28T00:25:42.039Z,55.12
2018-09-28T00:28:11.140Z,54.32
2018-09-28T00:30:40.178Z,55.60
2018-09-28T00:33:09.093Z,54.72
2018-09-28T00:35:38.061Z,54.58
2018-09-28T00:38:07.301Z,55.35
2018-09-28T00:40:36.214Z,54.83
2018-09-28T00:43:05.032Z,55.85
2018-09-28T00:45:33.854Z,55.38
2018-09-28T00:48:02.860Z,55.08
2018-09-28T00:50:31.718Z,56.17
2018-09-28T00:53:00.614Z,56.53
2018-09-28T00:55:29.458Z,56.36
2018-09-28T00:57:58.454Z,56.25
2018-09-28T01:00:27.506Z,56.99
2018-09-28T01:02:56.341Z,56.71
2018-09-28T01:05:25.436Z,57.39
2018-09-28T01:07:54.823Z,57.45
2018-09-28T01:10:23.972Z,57.79
2018-09-28T01:12:52.947Z,56.84
2018-09-28T01:15:22.236Z,57.06
2018-09-28T01:17:51.240Z,57.30
2018-09-28T01:20:20.216Z,57.39
2018-09-28T01:22:49.056Z,56.72
2018-09-28T01:25:17.939Z,56.98
2018-09-28T01:27:47.031Z,56.17
2018-09-28T01:30:15.781Z,56.98
2018-09-28T01:32:44.547Z,56.26
2018-09-28T01:35:13.302Z,57.43
2018-09-28T01:37:42.046Z,57.07
2018-09-28T01:40:10.936Z,57.32
2018-09-28T01:42:39.620Z,56.92
2018-09-28T01:45:08.389Z,57.07
2018-09-28T01:47:37.116Z,57.89
2018-09-28T01:50:05.862Z,57.00
2018-09-28T01:52:34.567Z,58.00
2018-09-28T01:55:03.296Z,58.63
2018-09-28T01:57:32.036Z,58.04
2018-09-28T02:00:00.802Z,58.10
2018-09-28T02:02:29.548Z,58.61
2018-09-28T02:04:58.192Z,58.73
2018-09-28T02:07:26.811Z,58.56
2018-09-28T02:09:55.507Z,58.75
2018-09-28T02:12:24.266Z,59.01
2018-09-28T02:14:53.127Z,58.80
2018-09-28T02:17:21.839Z,59.22
2018-09-28T02:19:50.628Z,59.87
2018-09-28T02:22:19.386Z,59.41
2018-09-28T02:24:48.127Z,59.33
2018-09-28T02:27:16.885Z,59.40
2018-09-28T02:29:45.531Z,60.17
2018-09-28T02:32:14.217Z,59.44
2018-09-28T02:34:42.967Z,60.03
2018-09-28T02:37:11.643Z,59.59
2018-09-28T02:39:40.405Z,60.38
2018-09-28T02:42:09.067Z,60.11
2018-09-28T02:44:37.736Z,59.80
2018-09-28T02:47:06.396Z,59.60
2018-09-28T02:49:35.121Z,59.37
2018-09-28T02:52:03.755Z,60.18
2018-09-28T02:54:32.573Z,60.37
2018-09-28T02:57:01.285Z,60.85
2018-09-28T02:59:29.896Z,60.32
2018-09-28T03:01:58.644Z,60.79
2018-09-28T03:04:27.335Z,60.99
2018-09-28T03:06:56.053Z,61.13
2018-09-28T03:09:24.786Z,60.46
2018-09-28T03:11:53.488Z,60.25
2018-09-28T03:14:22.183Z,61.20
2018-09-28T03:16:50.946Z,60.94
2018-09-28T03:19:19.651Z,61.01
2018-09-28T03:21:48.332Z,60.79
2018-09-28T03:24:17.015Z,61.01
2018-09-28T03:26:45.823Z,61.34
2018-09-28T03:29:14.497Z,60.78
2018-09-28T03:31:43.721Z,61.21
2018-09-28T03:34:12.412Z,61.41
2018-09-28T03:36:41.090Z,61.13
2018-09-28T03:39:09.825Z,61.31
2018-09-28T03:41:38.479Z,61.33
2018-09-28T03:44:07.416Z,61.74
2018-09-28T03:46:36.463Z,61.43
2018-09-28T03:49:05.262Z,61.29
2018-09-28T03:51:34.020Z,61.75
2018-09-28T03:54:03.652Z,62.25
2018-09-28T03:56:32.499Z,62.31
2018-09-28T03:59:01.215Z,62.37
2018-09-28T04:01:29.993Z,62.54
2018-09-28T04:03:58.739Z,62.79
2018-09-28T04:06:27.519Z,62.36
2018-09-28T04:08:56.277Z,62.82
2018-09-28T04:11:25.170Z,62.64
2018-09-28T04:13:53.864Z,62.86
2018-09-28T04:16:22.635Z,62.69
2018-09-28T04:18:51.378Z,62.13
2018-09-28T04:21:20.053Z,62.44
2018-09-28T04:23:48.756Z,62.26
2018-09-28T04:26:17.416Z,63.25
2018-09-28T04:28:46.267Z,62.73
2018-09-28T04:31:14.911Z,63.20
2018-09-28T04:33:43.576Z,62.58
2018-09-28T04:36:12.337Z,63.17
2018-09-28T04:38:41.064Z,62.71
2018-09-28T04:41:09.727Z,62.76
2018-09-28T04:43:38.414Z,62.37
2018-09-28T04:46:07.233Z,62.73
2018-09-28T04:48:35.923Z,61.56
2018-09-28T04:51:04.672Z,62.92
2018-09-28T04:53:33.416Z,63.36
2018-09-28T04:56:02.221Z,62.59
2018-09-28T04:58:31.225Z,62.80
2018-09-28T05:00:59.918Z,62.94
2018-09-28T05:03:28.615Z,61.66
2018-09-28T05:05:57.323Z,61.46
2018-09-28T05:08:26.036Z,61.71
2018-09-28T05:10:54.826Z,61.72
2018-09-28T05:13:23.488Z,61.15
2018-09-28T05:15:52.187Z,61.51
2018-09-28T05:18:20.859Z,61.24
2018-09-28T05:20:49.534Z,60.35
2018-09-28T05:23:18.260Z,60.27
2018-09-28T05:25:47.065Z,60.14
2018-09-28T05:28:15.743Z,60.19
2018-09-28T05:30:44.971Z,60.44
2018-09-28T05:33:13.424Z,59.93
2018-09-28T05:35:42.396Z,58.96
2018-09-28T05:38:11.284Z,58.20
2018-09-28T05:40:40.460Z,58.16
2018-09-28T05:43:09.436Z,58.01
2018-09-28T05:45:38.163Z,57.39
2018-09-28T05:48:06.998Z,55.86
2018-09-28T05:50:35.683Z,54.98
2018-09-28T05:53:04.376Z,54.06
2018-09-28T05:55:33.113Z,54.53
2018-09-28T05:58:06.949Z,55.03
2018-09-28T06:00:40.950Z,53.94
2018-09-28T06:03:13.099Z,54.30
2018-09-28T06:05:48.811Z,52.85
2018-09-28T06:08:17.541Z,53.63
2018-09-28T06:10:46.192Z,51.98
2018-09-28T06:13:14.890Z,52.80
2018-09-28T06:15:44.648Z,52.28
2018-09-28T06:18:13.451Z,52.56
2018-09-28T06:20:42.248Z,51.62
2018-09-28T06:23:11.381Z,50.79
2018-09-28T06:25:40.035Z,52.30
2018-09-28T06:28:10.971Z,50.42
2018-09-28T06:30:39.669Z,51.62
2018-09-28T06:33:09.016Z,51.06
2018-09-28T06:35:37.720Z,48.98
2018-09-28T06:38:06.488Z,49.95
2018-09-28T06:40:35.159Z,49.00
2018-09-28T06:43:03.982Z,49.61
2018-09-28T06:45:32.716Z,48.22
2018-09-28T06:48:01.491Z,48.03
2018-09-28T06:50:30.158Z,48.30
2018-09-28T06:52:58.799Z,47.90
2018-09-28T06:55:27.471Z,48.36
2018-09-28T06:57:56.295Z,48.39
2018-09-28T07:00:25.207Z,47.25
2018-09-28T07:02:53.893Z,46.92
2018-09-28T07:05:22.663Z,46.04
2018-09-28T07:07:51.299Z,47.01
2018-09-28T07:10:19.964Z,45.73
2018-09-28T07:12:48.679Z,45.28
2018-09-28T07:15:17.529Z,45.18
2018-09-28T07:17:46.525Z,44.96
2018-09-28T07:20:15.232Z,44.21
2018-09-28T07:22:44.000Z,44.48
2018-09-28T07:25:12.797Z,43.39
2018-09-28T07:27:41.630Z,42.69
2018-09-28T07:30:10.429Z,42.20
2018-09-28T07:32:39.556Z,42.37
2018-09-28T07:35:08.289Z,42.40
2018-09-28T07:37:36.975Z,41.51
2018-09-28T07:40:05.884Z,41.82
2018-09-28T07:42:34.739Z,41.12
2018-09-28T07:45:03.400Z,41.39
2018-09-28T07:47:32.120Z,41.16
2018-09-28T07:50:00.764Z,41.31
2018-09-28T07:52:29.535Z,40.60
2018-09-28T07:54:58.252Z,40.00
2018-09-28T07:57:26.967Z,39.45
2018-09-28T07:59:55.642Z,38.87
2018-09-28T08:02:24.404Z,37.70
2018-09-28T08:04:53.092Z,37.71
2018-09-28T08:07:21.817Z,37.65
2018-09-28T08:09:50.482Z,37.98
2018-09-28T08:12:19.168Z,36.36
2018-09-28T08:14:47.849Z,37.14
2018-09-28T08:17:16.616Z,36.94
2018-09-28T08:19:45.368Z,36.17
2018-09-28T08:22:14.160Z,36.18
2018-09-28T08:24:42.880Z,36.55
2018-09-28T08:27:11.736Z,35.99
2018-09-28T08:29:40.504Z,35.10
2018-09-28T08:32:09.228Z,34.41
2018-09-28T08:34:37.953Z,33.86
2018-09-28T08:37:06.668Z,34.72
2018-09-28T08:39:35.613Z,34.99
2018-09-28T08:42:04.384Z,34.47
2018-09-28T08:44:33.269Z,33.39
2018-09-28T08:47:02.072Z,34.00
2018-09-28T08:49:30.832Z,33.47
2018-09-28T08:51:59.750Z,32.39
2018-09-28T08:54:28.411Z,33.33
2018-09-28T08:56:57.354Z,31.89
2018-09-28T08:59:26.067Z,32.49
2018-09-28T09:01:54.774Z,30.95
2018-09-28T09:04:23.579Z,31.29
2018-09-28T09:06:52.312Z,30.53
2018-09-28T09:09:21.014Z,30.83
2018-09-28T09:11:49.752Z,30.48
2018-09-28T09:14:18.481Z,29.97
2018-09-28T09:16:47.188Z,30.07
2018-09-28T09:19:15.931Z,29.07
2018-09-28T09:21:44.630Z,29.99
2018-09-28T09:24:13.399Z,29.06
2018-09-28T09:26:42.122Z,28.45
2018-09-28T09:29:10.815Z,29.19
2018-09-28T09:31:39.454Z,28.93
2018-09-28T09:34:08.198Z,27.89
2018-09-28T09:36:36.887Z,28.69
2018-09-28T09:39:08.270Z,29.86
2018-09-28T09:41:37.068Z,28.05
2018-09-28T09:44:05.737Z,27.38
2018-09-28T09:46:34.535Z,27.74
2018-09-28T09:49:03.264Z,25.59
2018-09-28T09:51:32.043Z,26.33
2018-09-28T09:54:00.880Z,24.02
2018-09-28T09:56:29.931Z,25.00
2018-09-28T09:58:58.740Z,21.04
2018-09-28T10:01:32.724Z,21.56
2018-09-28T10:04:06.493Z,20.97
2018-09-28T10:06:35.227Z,19.74
2018-09-28T10:09:04.413Z,19.31
2018-09-28T10:11:33.252Z,18.62
2018-09-28T10:14:01.963Z,17.45
2018-09-28T10:16:31.179Z,17.74
2018-09-28T10:18:59.898Z,16.99
2018-09-28T10:21:28.581Z,18.05
2018-09-28T10:23:57.299Z,17.62
2018-09-28T10:26:26.049Z,16.11
2018-09-28T10:28:54.793Z,17.34
2018-09-28T10:31:23.536Z,16.77
2018-09-28T10:33:52.316Z,16.50
2018-09-28T10:36:21.108Z,15.90
2018-09-28T10:38:49.790Z,16.60
2018-09-28T10:41:18.524Z,16.87
2018-09-28T10:43:47.121Z,17.24
2018-09-28T10:46:15.803Z,17.45
2018-09-28T10:48:44.461Z,15.92
2018-09-28T10:51:13.104Z,16.09
2018-09-28T10:53:41.833Z,16.40
2018-09-28T10:56:10.501Z,15.77
2018-09-28T10:58:39.165Z,16.18
2018-09-28T11:01:08.037Z,15.13
2018-09-28T11:03:36.987Z,15.67
2018-09-28T11:06:05.765Z,14.21
2018-09-28T11:08:34.528Z,15.10
2018-09-28T11:11:03.293Z,15.49
2018-09-28T11:13:32.074Z,14.24
2018-09-28T11:16:01.341Z,15.38
2018-09-28T11:18:30.027Z,15.13
2018-09-28T11:20:58.728Z,15.85
2018-09-28T11:23:27.512Z,15.37
2018-09-28T11:25:56.218Z,17.06
2018-09-28T11:28:25.041Z,16.15
2018-09-28T11:30:53.807Z,16.21
2018-09-28T11:33:22.685Z,14.83
2018-09-28T11:35:51.398Z,14.19
2018-09-28T11:38:20.396Z,13.99
2018-09-28T11:40:49.147Z,14.71
2018-09-28T11:43:17.960Z,14.15
2018-09-28T11:45:46.658Z,14.67
2018-09-28T11:48:15.428Z,14.87
2018-09-28T11:50:44.260Z,16.27
2018-09-28T11:53:13.068Z,15.95
2018-09-28T11:55:42.275Z,15.25
2018-09-28T11:58:10.992Z,13.80
2018-09-28T12:00:39.755Z,14.47
2018-09-28T12:03:08.995Z,14.19
2018-09-28T12:05:38.137Z,14.11
2018-09-28T12:08:06.891Z,14.87
2018-09-28T12:10:35.626Z,13.91
2018-09-28T12:13:04.744Z,13.96
2018-09-28T12:15:33.434Z,14.30
2018-09-28T12:18:02.167Z,15.20
2018-09-28T12:20:31.044Z,14.12
2018-09-28T12:22:59.757Z,14.92
2018-09-28T12:25:28.537Z,13.76
2018-09-28T12:27:57.289Z,15.21
2018-09-28T12:30:26.144Z,13.09
2018-09-28T12:32:55.064Z,13.68
2018-09-28T12:35:24.388Z,13.54
2018-09-28T12:37:53.162Z,13.45
2018-09-28T12:40:21.890Z,13.03
2018-09-28T12:42:50.829Z,13.16
2018-09-28T12:45:19.524Z,13.42
2018-09-28T12:47:48.251Z,12.72
2018-09-28T12:50:17.144Z,12.95
2018-09-28T12:52:48.771Z,14.23
2018-09-28T12:55:17.426Z,13.05
2018-09-28T12:57:46.120Z,14.21
2018-09-28T13:00:17.602Z,13.62
2018-09-28T13:02:46.330Z,14.29
2018-09-28T13:05:14.620Z,13.00
2018-09-28T13:07:43.470Z,13.65
2018-09-28T13:10:12.238Z,15.02
2018-09-28T13:12:41.177Z,13.38
2018-09-28T13:15:10.094Z,13.69
2018-09-28T13:17:38.760Z,12.99
2018-09-28T13:20:07.501Z,13.31
2018-09-28T13:22:36.240Z,12.58
2018-09-28T13:25:05.101Z,13.43
2018-09-28T13:27:33.848Z,12.11
2018-09-28T13:30:02.509Z,12.54
2018-09-28T13:32:31.234Z,13.44
2018-09-28T13:35:00.082Z,13.86
2018-09-28T13:37:28.732Z,13.23
2018-09-28T13:39:57.396Z,12.75
2018-09-28T13:42:26.205Z,13.01
2018-09-28T13:44:54.917Z,13.23
2018-09-28T13:47:23.768Z,12.49
2018-09-28T13:49:52.635Z,12.27
2018-09-28T13:52:21.458Z,12.92
2018-09-28T13:54:50.269Z,12.93
2018-09-28T13:57:18.970Z,12.57
2018-09-28T13:59:47.608Z,13.77
2018-09-28T14:02:16.602Z,12.81
2018-09-28T14:04:45.755Z,13.31
2018-09-28T14:07:14.733Z,13.28
2018-09-28T14:09:43.340Z,13.57
2018-09-28T14:12:12.112Z,12.61
2018-09-28T14:14:40.880Z,13.41
2018-09-28T14:17:09.632Z,12.93
2018-09-28T14:19:38.325Z,12.47
2018-09-28T14:22:07.221Z,12.78
2018-09-28T14:24:35.974Z,12.96
2018-09-28T14:27:04.723Z,13.40
2018-09-28T14:29:33.396Z,13.05
2018-09-28T14:32:02.131Z,12.04
2018-09-28T14:34:30.937Z,12.48
2018-09-28T14:36:59.734Z,12.63
2018-09-28T14:39:28.496Z,12.47
2018-09-28T14:41:57.335Z,12.26
2018-09-28T14:44:26.035Z,13.21
2018-09-28T14:46:54.922Z,12.95
2018-09-28T14:49:23.698Z,12.46
2018-09-28T14:51:53.161Z,12.64
2018-09-28T14:54:21.945Z,12.00
2018-09-28T14:56:50.817Z,13.15
2018-09-28T14:59:19.572Z,12.94
2018-09-28T15:01:48.380Z,12.33
2018-09-28T15:04:17.234Z,13.22
2018-09-28T15:06:46.094Z,13.02
2018-09-28T15:09:14.721Z,13.01
2018-09-28T15:11:43.488Z,13.93
2018-09-28T15:14:12.233Z,13.56
2018-09-28T15:16:41.085Z,13.52
2018-09-28T15:19:09.865Z,14.59
2018-09-28T15:21:38.544Z,13.91
2018-09-28T15:24:07.597Z,13.89
2018-09-28T15:26:36.326Z,14.70
2018-09-28T15:29:05.124Z,14.06
2018-09-28T15:31:33.830Z,15.61
2018-09-28T15:34:02.543Z,14.86
2018-09-28T15:36:31.225Z,15.79
2018-09-28T15:39:00.287Z,14.94
2018-09-28T15:41:29.134Z,15.91
2018-09-28T15:43:57.853Z,15.93
2018-09-28T15:46:26.616Z,16.51
2018-09-28T15:48:55.336Z,16.92
2018-09-28T15:51:24.085Z,17.28
2018-09-28T15:53:52.814Z,18.25
2018-09-28T15:56:21.581Z,17.62
2018-09-28T15:58:50.390Z,17.92
2018-09-28T16:01:19.173Z,18.49
2018-09-28T16:03:47.860Z,18.49
2018-09-28T16:06:16.553Z,19.20
2018-09-28T16:08:45.290Z,19.64
2018-09-28T16:11:14.621Z,19.57
2018-09-28T16:13:43.378Z,20.13
2018-09-28T16:16:12.100Z,20.84
2018-09-28T16:18:42.076Z,20.14
2018-09-28T16:21:10.871Z,20.90
2018-09-28T16:23:39.753Z,21.84
2018-09-28T16:26:08.421Z,21.29
2018-09-28T16:28:37.175Z,21.75
2018-09-28T16:31:06.172Z,21.80
2018-09-28T16:33:35.159Z,21.66
2018-09-28T16:36:04.082Z,22.43
2018-09-28T16:38:32.859Z,22.48
2018-09-28T16:41:01.629Z,21.73
2018-09-28T16:43:30.431Z,22.69
2018-09-28T16:45:59.135Z,22.42
2018-09-28T16:48:27.814Z,22.53
2018-09-28T16:50:56.504Z,22.25
2018-09-28T16:53:25.172Z,22.80
2018-09-28T16:55:53.871Z,22.41
2018-09-28T16:58:22.564Z,22.73
2018-09-28T17:00:51.271Z,22.82
2018-09-28T17:03:20.113Z,23.74
2018-09-28T17:05:49.308Z,23.53
2018-09-28T17:08:18.058Z,23.40
2018-09-28T17:10:46.961Z,23.61
2018-09-28T17:13:15.648Z,23.90
2018-09-28T17:15:44.577Z,23.39
2018-09-28T17:18:13.336Z,23.13
2018-09-28T17:20:42.188Z,23.29
2018-09-28T17:23:10.926Z,22.40
2018-09-28T17:25:39.717Z,21.12
2018-09-28T17:28:08.437Z,22.44
2018-09-28T17:30:37.233Z,21.25
2018-09-28T17:33:06.235Z,24.05
2018-09-28T17:35:34.914Z,25.26
2018-09-28T17:38:03.881Z,25.45
2018-09-28T17:40:32.627Z,25.09
2018-09-28T17:43:02.194Z,24.86
2018-09-28T17:45:31.192Z,24.72
2018-09-28T17:47:59.917Z,25.51
2018-09-28T17:50:28.683Z,25.56
2018-09-28T17:52:57.368Z,24.58
2018-09-28T17:55:26.095Z,24.98
2018-09-28T17:57:54.884Z,25.04
2018-09-28T18:00:23.650Z,24.59
2018-09-28T18:02:52.810Z,24.52
2018-09-28T18:05:21.475Z,24.98
2018-09-28T18:07:50.312Z,24.98
2018-09-28T18:10:18.979Z,24.76
2018-09-28T18:12:47.727Z,24.89
2018-09-28T18:15:16.493Z,25.16
2018-09-28T18:17:45.238Z,25.40
2018-09-28T18:20:14.048Z,25.61
2018-09-28T18:22:42.806Z,26.69
2018-09-28T18:25:11.612Z,26.43
2018-09-28T18:27:40.470Z,26.42
2018-09-28T18:30:14.194Z,26.50
2018-09-28T18:32:42.992Z,26.80
2018-09-28T18:35:11.800Z,26.72
2018-09-28T18:37:40.476Z,27.12
2018-09-28T18:40:09.331Z,27.58
2018-09-28T18:42:38.157Z,26.96
2018-09-28T18:45:07.015Z,27.09
2018-09-28T18:47:36.172Z,27.27
2018-09-28T18:50:04.977Z,27.51
2018-09-28T18:52:33.712Z,27.57
2018-09-28T18:55:02.417Z,27.53
2018-09-28T18:57:31.167Z,28.08
2018-09-28T18:59:59.935Z,27.67
2018-09-28T19:02:28.702Z,27.39
2018-09-28T19:04:57.596Z,27.56
2018-09-28T19:07:26.485Z,28.83
2018-09-28T19:09:55.240Z,27.98
2018-09-28T19:12:23.938Z,29.04
2018-09-28T19:14:52.661Z,28.09
2018-09-28T19:17:21.487Z,28.40
2018-09-28T19:19:50.248Z,28.49
2018-09-28T19:22:19.008Z,27.80
2018-09-28T19:24:47.692Z,28.36
2018-09-28T19:27:16.462Z,27.85
2018-09-28T19:29:45.125Z,28.43
2018-09-28T19:32:13.794Z,28.01
2018-09-28T19:34:42.512Z,28.58
2018-09-28T19:37:11.341Z,28.56
2018-09-28T19:39:40.205Z,27.99
2018-09-28T19:42:09.137Z,28.33
2018-09-28T19:44:37.857Z,28.03
2018-09-28T19:47:06.567Z,28.44
2018-09-28T19:49:35.329Z,28.32
2018-09-28T19:52:04.046Z,28.87
2018-09-28T19:54:32.812Z,28.93
2018-09-28T19:57:01.917Z,29.06
2018-09-28T19:59:30.689Z,28.48
2018-09-28T20:01:59.350Z,29.24
2018-09-28T20:04:28.139Z,28.82
2018-09-28T20:06:56.808Z,28.69
2018-09-28T20:09:25.508Z,28.93
2018-09-28T20:11:54.200Z,29.02
2018-09-28T20:14:22.900Z,29.77
2018-09-28T20:16:51.752Z,29.34
2018-09-28T20:19:20.440Z,29.47
2018-09-28T20:21:49.120Z,29.35
2018-09-28T20:24:17.954Z,29.93
2018-09-28T20:26:46.760Z,30.30
2018-09-28T20:29:15.477Z,30.14
2018-09-28T20:31:44.325Z,30.23
2018-09-28T20:34:12.997Z,30.28
2018-09-28T20:36:41.705Z,30.65
2018-09-28T20:39:12.294Z,30.36
2018-09-28T20:41:41.461Z,30.44
2018-09-28T20:44:10.187Z,30.66
2018-09-28T20:46:38.972Z,30.98
2018-09-28T20:49:07.977Z,30.39
2018-09-28T20:51:36.784Z,30.63
2018-09-28T20:54:05.515Z,30.68
2018-09-28T20:56:34.308Z,30.95
2018-09-28T20:59:02.985Z,30.62
2018-09-28T21:01:31.736Z,30.98
2018-09-28T21:04:00.440Z,31.21
2018-09-28T21:06:29.061Z,31.50
2018-09-28T21:08:57.744Z,31.64
2018-09-28T21:11:26.474Z,32.04
2018-09-28T21:13:55.117Z,32.23
2018-09-28T21:16:23.838Z,32.18
2018-09-28T21:18:52.641Z,32.76
2018-09-28T21:21:21.384Z,31.37
2018-09-28T21:23:50.208Z,32.31
2018-09-28T21:26:19.259Z,32.15
2018-09-28T21:28:47.973Z,32.67
2018-09-28T21:31:16.780Z,32.36
2018-09-28T21:33:45.458Z,32.75
2018-09-28T21:36:14.144Z,32.77
2018-09-28T21:38:42.909Z,33.78
2018-09-28T21:41:11.580Z,34.13
2018-09-28T21:43:40.304Z,34.36
2018-09-28T21:46:08.988Z,34.44
2018-09-28T21:48:37.709Z,34.07
2018-09-28T21:51:06.432Z,35.02
2018-09-28T21:53:35.092Z,35.78
2018-09-28T21:56:03.788Z,34.27
2018-09-28T21:58:32.563Z,34.39
2018-09-28T22:01:01.274Z,34.74
2018-09-28T22:03:29.973Z,33.55
2018-09-28T22:05:58.712Z,34.56
2018-09-28T22:08:27.411Z,35.04
2018-09-28T22:10:56.169Z,35.42
2018-09-28T22:13:24.875Z,35.54
2018-09-28T22:15:53.601Z,33.87
2018-09-28T22:18:22.248Z,33.92
2018-09-28T22:20:50.957Z,33.63
2018-09-28T22:23:19.672Z,34.39
2018-09-28T22:25:48.459Z,34.35
2018-09-28T22:28:17.153Z,34.30
2018-09-28T22:30:45.956Z,34.91
2018-09-28T22:33:14.752Z,35.92
2018-09-28T22:35:43.444Z,35.03
2018-09-28T22:38:12.173Z,36.29
2018-09-28T22:40:40.916Z,37.47
2018-09-28T22:43:09.661Z,38.11
2018-09-28T22:45:38.339Z,37.08
2018-09-28T22:48:07.044Z,37.01
2018-09-28T22:50:35.760Z,37.36
2018-09-28T22:53:04.525Z,37.85
2018-09-28T22:55:33.471Z,38.02
2018-09-28T22:58:02.157Z,37.01
2018-09-28T23:00:30.909Z,37.92
2018-09-28T23:02:59.609Z,37.86
2018-09-28T23:05:28.296Z,38.01
2018-09-28T23:07:56.972Z,37.65
2018-09-28T23:10:25.825Z,38.31
2018-09-28T23:12:54.576Z,38.58
2018-09-28T23:15:23.255Z,38.44
2018-09-28T23:17:52.043Z,38.07
2018-09-28T23:20:20.728Z,38.82
2018-09-28T23:22:49.589Z,38.85
2018-09-28T23:25:18.434Z,39.51
2018-09-28T23:27:47.202Z,40.02
2018-09-28T23:30:15.991Z,39.58
2018-09-28T23:32:44.701Z,39.32
2018-09-28T23:35:13.484Z,39.64
2018-09-28T23:37:42.153Z,39.54
2018-09-28T23:40:10.789Z,38.76
2018-09-28T23:42:39.507Z,39.94
2018-09-28T23:45:08.241Z,38.61
2018-09-28T23:47:36.917Z,37.90
2018-09-28T23:50:05.684Z,38.33
2018-09-28T23:52:34.361Z,39.54
2018-09-28T23:55:03.129Z,40.47
2018-09-28T23:57:31.809Z,40.91
